createdAt,value
2022-10-06T00:02:28.372Z,3.30
2022-10-06T00:07:33.925Z,3.40
2022-10-06T00:12:48.614Z,2.80
2022-10-06T00:17:54.136Z,2.80
2022-10-06T00:22:59.583Z,3.63
2022-10-06T00:28:05.168Z,3.27
2022-10-06T00:33:16.482Z,3.30
2022-10-06T00:38:23.618Z,2.60
2022-10-06T00:43:41.031Z,2.70
2022-10-06T00:48:51.125Z,2.80
2022-10-06T00:53:58.121Z,3.50
2022-10-06T00:59:03.782Z,2.80
2022-10-06T01:04:12.195Z,2.77
2022-10-06T01:09:19.658Z,2.70
2022-10-06T01:14:26.350Z,2.60
2022-10-06T01:19:37.717Z,2.60
2022-10-06T01:24:45.005Z,2.70
2022-10-06T01:29:55.865Z,2.60
2022-10-06T01:35:01.844Z,2.47
2022-10-06T01:40:09.012Z,2.50
2022-10-06T01:45:14.796Z,2.60
2022-10-06T01:50:20.308Z,2.67
2022-10-06T01:55:26.887Z,2.67
2022-10-06T02:00:34.094Z,2.53
2022-10-06T02:05:41.376Z,3.10
2022-10-06T02:10:46.903Z,2.57
2022-10-06T02:15:59.076Z,2.27
2022-10-06T02:21:05.875Z,2.60
2022-10-06T02:26:12.160Z,2.70
2022-10-06T02:31:18.558Z,2.57
2022-10-06T02:36:24.800Z,2.63
2022-10-06T02:41:31.092Z,2.50
2022-10-06T02:46:37.426Z,2.67
2022-10-06T02:51:43.938Z,2.37
2022-10-06T02:56:50.332Z,2.60
2022-10-06T03:01:55.959Z,2.40
2022-10-06T03:07:01.672Z,2.47
2022-10-06T03:12:08.889Z,2.30
2022-10-06T03:17:16.170Z,2.60
2022-10-06T03:22:23.397Z,2.77
2022-10-06T03:27:30.604Z,2.83
2022-10-06T03:32:38.239Z,2.70
2022-10-06T03:37:45.371Z,3.00
2022-10-06T03:42:51.872Z,2.87
2022-10-06T03:47:58.360Z,3.00
2022-10-06T03:53:04.487Z,2.70
2022-10-06T03:58:10.201Z,2.43
2022-10-06T04:03:19.076Z,2.93
2022-10-06T04:08:26.376Z,2.50
2022-10-06T04:13:32.761Z,2.10
2022-10-06T04:18:39.654Z,2.53
2022-10-06T04:23:45.567Z,2.50
2022-10-06T04:28:51.671Z,2.10
2022-10-06T04:34:00.364Z,2.43
2022-10-06T04:39:11.519Z,2.37
2022-10-06T04:44:18.739Z,2.57
2022-10-06T04:49:25.327Z,2.30
2022-10-06T04:54:33.915Z,2.27
2022-10-06T05:00:05.307Z,2.40
2022-10-06T05:05:09.624Z,1.90
2022-10-06T05:10:15.516Z,1.90
2022-10-06T05:15:21.910Z,1.90
2022-10-06T05:20:27.733Z,1.87
2022-10-06T05:25:33.598Z,1.67
2022-10-06T05:30:41.484Z,1.87
2022-10-06T05:35:58.670Z,1.53
2022-10-06T05:41:10.403Z,1.20
2022-10-06T05:46:21.064Z,1.13
2022-10-06T05:51:31.270Z,1.10
2022-10-06T05:56:39.860Z,0.80
2022-10-06T06:01:45.967Z,0.80
2022-10-06T06:06:59.142Z,0.53
2022-10-06T06:12:05.838Z,0.70
2022-10-06T06:17:12.920Z,0.70
2022-10-06T06:22:18.441Z,0.87
2022-10-06T06:27:26.352Z,0.70
2022-10-06T06:32:32.088Z,0.70
2022-10-06T06:37:38.099Z,1.07
2022-10-06T06:42:43.665Z,0.63
2022-10-06T06:47:59.948Z,0.70
2022-10-06T06:53:05.605Z,0.80
2022-10-06T06:58:12.759Z,0.60
2022-10-06T07:03:38.773Z,0.50
2022-10-06T07:08:31.095Z,0.50
2022-10-06T07:13:38.346Z,0.60
2022-10-06T07:19:03.184Z,0.37
2022-10-06T07:24:28.925Z,0.47
2022-10-06T07:29:34.766Z,0.70
2022-10-06T07:39:49.255Z,0.70
2022-10-06T07:45:13.191Z,0.90
2022-10-06T07:50:19.110Z,1.07
2022-10-06T07:55:25.155Z,0.80
2022-10-06T08:00:43.255Z,0.73
2022-10-06T08:05:51.298Z,0.83
2022-10-06T08:11:01.648Z,1.10
2022-10-06T08:16:18.200Z,0.83
2022-10-06T08:21:29.732Z,0.73
2022-10-06T08:26:36.165Z,1.13
2022-10-06T08:31:41.703Z,0.93
2022-10-06T08:37:02.388Z,0.90
2022-10-06T08:41:56.002Z,0.50
2022-10-06T08:47:07.871Z,1.00
2022-10-06T08:52:32.620Z,1.13
2022-10-06T08:57:47.279Z,1.00
2022-10-06T09:02:53.569Z,0.93
2022-10-06T09:08:32.171Z,0.90
2022-10-06T09:13:40.687Z,0.90
2022-10-06T09:19:09.137Z,1.27
2022-10-06T09:24:03.897Z,0.70
2022-10-06T09:29:09.621Z,1.10
2022-10-06T09:34:23.751Z,1.10
2022-10-06T09:39:35.906Z,1.30
2022-10-06T09:44:56.402Z,0.93
2022-10-06T09:50:15.633Z,1.53
2022-10-06T09:55:23.038Z,0.87
2022-10-06T10:00:31.637Z,1.27
2022-10-06T10:05:40.836Z,1.00
2022-10-06T10:10:46.365Z,0.90
2022-10-06T10:15:58.503Z,1.03
2022-10-06T10:21:08.689Z,0.80
2022-10-06T10:26:44.991Z,0.97
2022-10-06T10:32:17.121Z,1.30
2022-10-06T10:37:26.455Z,1.10
2022-10-06T10:42:35.382Z,1.23
2022-10-06T10:47:45.868Z,0.80
2022-10-06T10:52:53.443Z,1.03
2022-10-06T10:58:20.000Z,0.80
2022-10-06T11:03:25.831Z,0.60
2022-10-06T11:08:43.091Z,1.10
2022-10-06T11:13:52.724Z,0.90
2022-10-06T11:19:16.324Z,1.07
2022-10-06T11:24:41.230Z,1.03
2022-10-06T11:29:59.123Z,0.80
2022-10-06T11:35:06.790Z,0.73
2022-10-06T11:40:31.131Z,0.90
2022-10-06T11:45:51.535Z,1.03
2022-10-06T11:50:59.233Z,1.20
2022-10-06T11:56:20.055Z,0.93
2022-10-06T12:01:39.383Z,1.10
2022-10-06T12:06:48.095Z,1.57
2022-10-06T12:11:55.488Z,0.80
2022-10-06T12:17:12.842Z,0.90
2022-10-06T12:22:20.125Z,1.13
2022-10-06T12:27:37.469Z,1.13
2022-10-06T12:32:49.622Z,0.93
2022-10-06T12:37:58.151Z,0.90
2022-10-06T12:43:21.064Z,0.87
2022-10-06T12:48:32.731Z,1.00
2022-10-06T12:53:50.060Z,0.97
2022-10-06T12:58:56.586Z,1.07
2022-10-06T13:04:02.041Z,1.03
2022-10-06T13:09:16.476Z,1.00
2022-10-06T13:14:21.994Z,1.10
2022-10-06T13:19:30.051Z,0.90
2022-10-06T13:24:35.648Z,0.80
2022-10-06T13:29:41.250Z,1.03
2022-10-06T13:34:47.202Z,1.00
2022-10-06T13:39:52.657Z,0.77
2022-10-06T13:45:02.119Z,1.00
2022-10-06T13:50:10.602Z,0.90
2022-10-06T13:55:27.723Z,1.30
2022-10-06T14:00:36.285Z,1.00
2022-10-06T14:05:44.660Z,0.87
2022-10-06T14:11:13.836Z,1.10
2022-10-06T14:16:25.381Z,1.00
2022-10-06T14:21:45.867Z,0.93
2022-10-06T14:26:53.671Z,0.80
2022-10-06T14:32:10.923Z,0.97
2022-10-06T14:37:16.575Z,0.90
2022-10-06T14:42:23.680Z,0.93
2022-10-06T14:47:30.770Z,1.00
2022-10-06T14:52:37.521Z,1.20
2022-10-06T14:57:42.977Z,1.15
2022-10-06T15:02:48.911Z,1.10
2022-10-06T15:08:12.654Z,0.80
2022-10-06T15:13:18.700Z,0.80
2022-10-06T15:18:26.224Z,1.10
2022-10-06T15:23:31.944Z,1.27
2022-10-06T15:28:55.429Z,1.27
2022-10-06T15:34:03.695Z,0.90
2022-10-06T15:39:16.333Z,0.70
2022-10-06T15:44:22.331Z,1.07
2022-10-06T15:49:30.502Z,0.80
2022-10-06T15:54:38.050Z,0.80
2022-10-06T15:59:44.150Z,1.00
2022-10-06T16:04:58.316Z,1.23
2022-10-06T16:10:03.752Z,0.90
2022-10-06T16:15:09.856Z,0.90
2022-10-06T16:20:16.639Z,1.00
2022-10-06T16:25:22.094Z,0.90
2022-10-06T16:30:27.923Z,1.00
2022-10-06T16:35:33.511Z,0.83
2022-10-06T16:40:38.905Z,1.30
2022-10-06T16:45:44.257Z,1.10
2022-10-06T16:50:49.648Z,1.37
2022-10-06T16:55:56.102Z,1.17
2022-10-06T17:01:01.590Z,1.63
2022-10-06T17:06:10.175Z,1.10
2022-10-06T17:11:20.175Z,1.23
2022-10-06T17:16:28.821Z,1.07
2022-10-06T17:21:55.734Z,1.70
2022-10-06T17:26:44.044Z,1.27
2022-10-06T17:31:53.528Z,1.10
2022-10-06T17:36:59.441Z,1.40
2022-10-06T17:42:05.398Z,1.70
2022-10-06T17:47:12.690Z,1.30
2022-10-06T17:52:24.113Z,1.27
2022-10-06T17:57:29.353Z,1.10
2022-10-06T18:02:34.877Z,1.10
2022-10-06T18:07:40.439Z,1.40
2022-10-06T18:12:47.731Z,1.50
2022-10-06T18:17:53.478Z,1.40
2022-10-06T18:22:58.951Z,1.70
2022-10-06T18:28:04.624Z,1.47
2022-10-06T18:38:17.279Z,1.60
2022-10-06T18:43:22.805Z,1.83
2022-10-06T18:48:46.387Z,1.47
2022-10-06T18:53:53.850Z,1.50
2022-10-06T18:59:01.847Z,1.50
2022-10-06T19:04:09.379Z,1.60
2022-10-06T19:09:16.976Z,1.30
2022-10-06T19:14:26.525Z,1.23
2022-10-06T19:19:32.692Z,1.50
2022-10-06T19:24:41.652Z,1.10
2022-10-06T19:29:48.832Z,1.47
2022-10-06T19:34:56.493Z,1.27
2022-10-06T19:40:02.059Z,1.60
2022-10-06T19:45:09.359Z,1.30
2022-10-06T19:50:17.319Z,1.80
2022-10-06T19:55:28.822Z,1.63
2022-10-06T20:00:34.418Z,1.70
2022-10-06T20:05:39.856Z,1.93
2022-10-06T20:10:45.308Z,1.47
2022-10-06T20:15:50.976Z,1.70
2022-10-06T20:21:00.020Z,1.67
2022-10-06T20:26:13.974Z,1.40
2022-10-06T20:31:26.320Z,1.20
2022-10-06T20:36:33.310Z,1.30
2022-10-06T20:41:38.982Z,1.17
2022-10-06T20:46:44.895Z,1.63
2022-10-06T20:51:52.063Z,1.30
2022-10-06T20:56:57.678Z,1.13
2022-10-06T21:02:03.301Z,1.33
2022-10-06T21:07:08.703Z,1.50
2022-10-06T21:12:15.755Z,1.27
2022-10-06T21:17:21.193Z,1.63
2022-10-06T21:22:27.180Z,1.20
2022-10-06T21:27:32.670Z,1.40
2022-10-06T21:32:38.313Z,1.20
2022-10-06T21:37:44.700Z,1.37
2022-10-06T21:42:50.426Z,1.33
2022-10-06T21:47:55.908Z,1.03
2022-10-06T21:53:01.469Z,1.20
2022-10-06T21:58:06.937Z,1.53
2022-10-06T22:03:12.998Z,1.40
2022-10-06T22:08:18.527Z,1.40
2022-10-06T22:13:23.934Z,0.90
2022-10-06T22:18:29.481Z,1.10
2022-10-06T22:23:34.888Z,1.00
2022-10-06T22:28:42.342Z,1.30
2022-10-06T22:33:53.725Z,0.90
2022-10-06T22:38:59.268Z,1.07
2022-10-06T22:44:04.885Z,1.20
2022-10-06T22:49:10.738Z,1.10
2022-10-06T22:54:22.230Z,1.23
2022-10-06T22:59:28.208Z,1.13
2022-10-06T23:04:33.794Z,1.20
2022-10-06T23:09:40.897Z,1.10
2022-10-06T23:14:46.380Z,1.27
2022-10-06T23:19:51.847Z,1.40
2022-10-06T23:24:57.520Z,1.23
2022-10-06T23:30:04.029Z,1.10
2022-10-06T23:35:11.883Z,1.13
2022-10-06T23:40:17.779Z,1.13
2022-10-06T23:45:23.307Z,1.37
2022-10-06T23:50:29.671Z,1.10
2022-10-06T23:55:35.706Z,1.20
